Terminal Aerodrome Forecast
Issued by NWS

Home | Current Version | Previous Version | Text Only | Print | Product List | Glossary On
Versions: 1 2 3 4 5 6 7 8 9 10 11 12 13 14
000
FTUS46 KMTR 252337
TAFSNS
TAF
KSNS 252337Z 2600/2624 28011KT P6SM FEW015
     FM260200 30008KT P6SM OVC006
     FM260900 VRB03KT 5SM BR OVC004
     FM261900 29007KT P6SM SCT015
      TEMPO 2620/2624 BKN015=

USA.gov is the U.S. government's official web portal to all federal, state and local government web resources and services.